createdAt,value
2018-07-19T00:00:07.880Z,20.06
2018-07-19T00:02:36.979Z,20.05
2018-07-19T00:05:06.234Z,20.03
2018-07-19T00:07:35.154Z,19.97
2018-07-19T00:10:04.413Z,19.97
2018-07-19T00:12:33.954Z,20.00
2018-07-19T00:15:03.065Z,20.01
2018-07-19T00:17:31.967Z,19.84
2018-07-19T00:20:00.855Z,19.59
2018-07-19T00:22:29.777Z,19.83
2018-07-19T00:24:58.723Z,19.99
2018-07-19T00:27:27.616Z,20.02
2018-07-19T00:29:56.494Z,19.94
2018-07-19T00:32:25.503Z,19.84
2018-07-19T00:34:54.401Z,19.93
2018-07-19T00:37:23.304Z,19.88
2018-07-19T00:39:52.207Z,19.79
2018-07-19T00:42:21.114Z,19.80
2018-07-19T00:44:49.993Z,19.86
2018-07-19T00:47:18.895Z,19.90
2018-07-19T00:49:47.851Z,19.90
2018-07-19T00:52:16.731Z,19.86
2018-07-19T00:54:45.633Z,19.86
2018-07-19T00:57:14.551Z,19.84
2018-07-19T00:59:43.434Z,19.84
2018-07-19T01:02:12.345Z,19.83
2018-07-19T01:04:41.245Z,19.86
2018-07-19T01:07:10.254Z,19.91
2018-07-19T01:09:39.151Z,19.87
2018-07-19T01:12:08.089Z,19.87
2018-07-19T01:14:36.971Z,19.87
2018-07-19T01:17:05.996Z,19.85
2018-07-19T01:19:34.900Z,19.85
2018-07-19T01:22:03.834Z,19.88
2018-07-19T01:24:32.776Z,19.88
2018-07-19T01:27:01.691Z,19.85
2018-07-19T01:29:30.615Z,19.86
2018-07-19T01:31:59.508Z,19.83
2018-07-19T01:34:28.729Z,19.85
2018-07-19T01:36:57.977Z,19.88
2018-07-19T01:39:30.337Z,19.86
2018-07-19T01:42:20.674Z,19.86
2018-07-19T01:44:49.585Z,19.88
2018-07-19T01:47:18.639Z,19.88
2018-07-19T01:49:47.944Z,19.87
2018-07-19T01:52:16.838Z,19.92
2018-07-19T01:54:45.752Z,19.95
2018-07-19T01:57:15.811Z,19.98
2018-07-19T01:59:45.215Z,19.98
2018-07-19T02:02:14.432Z,20.03
2018-07-19T02:04:43.640Z,20.07
2018-07-19T02:07:12.563Z,19.89
2018-07-19T02:09:41.490Z,19.87
2018-07-19T02:12:10.412Z,19.65
2018-07-19T02:14:39.297Z,19.61
2018-07-19T02:17:08.232Z,19.67
2018-07-19T02:19:37.114Z,19.79
2018-07-19T02:22:06.321Z,19.77
2018-07-19T02:24:35.248Z,19.76
2018-07-19T02:27:04.170Z,19.73
2018-07-19T02:29:36.288Z,19.71
2018-07-19T02:32:05.266Z,19.62
2018-07-19T02:34:37.224Z,19.52
2018-07-19T02:37:06.139Z,19.46
2018-07-19T02:39:35.037Z,19.46
2018-07-19T02:42:03.917Z,19.45
2018-07-19T02:44:32.828Z,19.42
2018-07-19T02:47:01.848Z,19.25
2018-07-19T02:49:30.736Z,19.18
2018-07-19T02:51:59.813Z,19.21
2018-07-19T02:54:29.101Z,19.14
2018-07-19T02:56:58.002Z,19.01
2018-07-19T02:59:26.898Z,19.03
2018-07-19T03:01:59.476Z,18.98
2018-07-19T03:04:28.339Z,18.89
2018-07-19T03:06:57.245Z,18.86
2018-07-19T03:09:26.175Z,18.86
2018-07-19T03:11:55.125Z,18.85
2018-07-19T03:14:24.042Z,18.82
2018-07-19T03:16:52.937Z,18.78
2018-07-19T03:19:22.148Z,18.79
2018-07-19T03:21:51.071Z,18.73
2018-07-19T03:24:20.068Z,18.60
2018-07-19T03:26:49.384Z,18.69
2018-07-19T03:29:18.294Z,18.65
2018-07-19T03:31:47.245Z,18.64
2018-07-19T03:34:16.420Z,18.56
2018-07-19T03:36:45.346Z,18.54
2018-07-19T03:39:15.124Z,18.52
2018-07-19T03:41:44.117Z,18.56
2018-07-19T03:44:13.028Z,18.56
2018-07-19T03:46:41.943Z,18.50
2018-07-19T03:49:10.975Z,18.33
2018-07-19T03:51:39.868Z,18.44
2018-07-19T03:54:08.764Z,18.50
2018-07-19T03:56:37.787Z,18.53
2018-07-19T03:59:06.986Z,18.51
2018-07-19T04:01:36.148Z,18.51
2018-07-19T04:04:05.092Z,18.50
2018-07-19T04:06:34.025Z,18.53
2018-07-19T04:09:03.110Z,18.53
2018-07-19T04:11:32.014Z,18.53
2018-07-19T04:14:04.902Z,18.60
2018-07-19T04:16:33.776Z,18.71
2018-07-19T04:19:02.714Z,18.86
2018-07-19T04:21:31.739Z,18.82
2018-07-19T04:24:00.638Z,18.87
2018-07-19T04:26:29.565Z,18.86
2018-07-19T04:28:58.620Z,18.82
2018-07-19T04:31:27.780Z,18.84
2018-07-19T04:33:57.099Z,18.87
2018-07-19T04:36:26.022Z,18.90
2018-07-19T04:38:55.005Z,18.94
2018-07-19T04:41:23.914Z,18.96
2018-07-19T04:43:52.874Z,18.93
2018-07-19T04:46:21.769Z,18.98
2018-07-19T04:48:50.667Z,19.01
2018-07-19T04:51:19.577Z,19.00
2018-07-19T04:53:48.538Z,19.01
2018-07-19T04:56:17.512Z,19.13
2018-07-19T04:58:46.417Z,19.23
2018-07-19T05:01:15.347Z,19.16
2018-07-19T05:03:44.272Z,19.17
2018-07-19T05:06:13.169Z,19.21
2018-07-19T05:08:42.067Z,19.21
2018-07-19T05:11:10.982Z,19.32
2018-07-19T05:13:39.913Z,19.36
2018-07-19T05:16:08.790Z,19.39
2018-07-19T05:18:38.505Z,19.43
2018-07-19T05:21:07.557Z,19.52
2018-07-19T05:23:36.821Z,19.56
2018-07-19T05:26:05.724Z,19.61
2018-07-19T05:28:34.634Z,19.61
2018-07-19T05:31:03.547Z,19.67
2018-07-19T05:33:32.632Z,19.72
2018-07-19T05:36:01.557Z,19.75
2018-07-19T05:38:30.452Z,19.84
2018-07-19T05:40:59.512Z,19.91
2018-07-19T05:43:28.413Z,19.94
2018-07-19T05:45:57.413Z,19.98
2018-07-19T05:48:26.411Z,19.97
2018-07-19T05:50:55.422Z,20.01
2018-07-19T05:53:24.482Z,20.07
2018-07-19T05:55:53.411Z,20.09
2018-07-19T05:58:22.342Z,20.15
2018-07-19T06:00:51.268Z,20.21
2018-07-19T06:03:20.168Z,20.28
2018-07-19T06:05:49.082Z,20.33
2018-07-19T06:08:17.993Z,20.37
2018-07-19T06:10:47.483Z,20.39
2018-07-19T06:13:16.366Z,20.47
2018-07-19T06:15:48.336Z,20.47
2018-07-19T06:18:20.217Z,20.47
2018-07-19T06:20:53.791Z,20.52
2018-07-19T06:23:56.544Z,20.55
2018-07-19T06:26:25.681Z,20.65
2018-07-19T06:28:54.562Z,20.69
2018-07-19T06:31:23.616Z,20.72
2018-07-19T06:33:52.498Z,20.77
2018-07-19T06:36:21.398Z,20.77
2018-07-19T06:38:50.310Z,20.78
2018-07-19T06:41:19.257Z,20.87
2018-07-19T06:43:48.115Z,20.89
2018-07-19T06:46:17.290Z,20.91
2018-07-19T06:48:46.194Z,20.98
2018-07-19T06:51:15.086Z,20.96
2018-07-19T06:53:43.997Z,21.07
2018-07-19T06:56:12.961Z,21.10
2018-07-19T06:58:41.888Z,21.19
2018-07-19T07:01:11.038Z,21.21
2018-07-19T07:03:39.986Z,21.26
2018-07-19T07:06:08.919Z,21.37
2018-07-19T07:08:38.013Z,21.49
2018-07-19T07:11:06.917Z,21.66
2018-07-19T07:13:35.837Z,21.73
2018-07-19T07:16:05.077Z,21.68
2018-07-19T07:18:34.029Z,21.69
2018-07-19T07:21:02.941Z,21.74
2018-07-19T07:23:31.834Z,21.71
2018-07-19T07:26:00.818Z,21.78
2018-07-19T07:28:29.733Z,21.76
2018-07-19T07:30:58.656Z,21.77
2018-07-19T07:33:27.535Z,21.87
2018-07-19T07:35:56.556Z,21.92
2018-07-19T07:38:25.453Z,21.97
2018-07-19T07:40:54.338Z,21.97
2018-07-19T07:43:23.245Z,22.00
2018-07-19T07:45:52.127Z,22.03
2018-07-19T07:48:21.066Z,22.10
2018-07-19T07:50:49.955Z,22.11
2018-07-19T07:53:18.858Z,22.13
2018-07-19T07:55:48.068Z,22.14
2018-07-19T07:58:16.969Z,22.19
2018-07-19T08:00:45.921Z,22.31
2018-07-19T08:03:15.101Z,22.42
2018-07-19T08:05:44.241Z,22.47
2018-07-19T08:08:13.388Z,22.46
2018-07-19T08:10:42.565Z,22.48
2018-07-19T08:13:11.480Z,22.50
2018-07-19T08:15:40.406Z,22.53
2018-07-19T08:18:09.310Z,22.62
2018-07-19T08:20:38.439Z,22.74
2018-07-19T08:23:07.361Z,22.73
2018-07-19T08:25:37.040Z,22.69
2018-07-19T08:28:06.127Z,22.63
2018-07-19T08:30:35.075Z,22.71
2018-07-19T08:33:04.005Z,22.71
2018-07-19T08:35:32.888Z,22.80
2018-07-19T08:38:01.807Z,22.85
2018-07-19T08:40:30.713Z,22.90
2018-07-19T08:42:59.694Z,22.95
2018-07-19T08:45:28.628Z,22.97
2018-07-19T08:47:57.584Z,23.01
2018-07-19T08:50:26.483Z,23.06
2018-07-19T08:52:56.514Z,23.11
2018-07-19T08:55:26.216Z,23.16
2018-07-19T08:57:55.644Z,23.19
2018-07-19T09:00:24.693Z,23.25
2018-07-19T09:02:57.306Z,23.30
2018-07-19T09:05:26.465Z,23.43
2018-07-19T09:07:55.374Z,23.50
2018-07-19T09:10:24.307Z,23.56
2018-07-19T09:12:53.205Z,23.55
2018-07-19T09:15:22.141Z,23.52
2018-07-19T09:17:51.048Z,23.50
2018-07-19T09:20:19.965Z,23.59
2018-07-19T09:22:48.871Z,23.70
2018-07-19T09:25:18.001Z,23.79
2018-07-19T09:27:46.914Z,23.85
2018-07-19T09:30:16.165Z,23.93
2018-07-19T09:32:45.350Z,24.00
2018-07-19T09:35:17.628Z,24.05
2018-07-19T09:37:46.537Z,24.10
2018-07-19T09:40:15.479Z,24.11
2018-07-19T09:42:44.421Z,24.09
2018-07-19T09:45:13.317Z,24.18
2018-07-19T09:47:42.221Z,24.29
2018-07-19T09:50:11.178Z,24.36
2018-07-19T09:52:40.122Z,24.30
2018-07-19T09:55:09.111Z,24.40
2018-07-19T09:57:38.040Z,24.32
2018-07-19T10:00:07.048Z,24.46
2018-07-19T10:02:35.943Z,24.48
2018-07-19T10:05:05.038Z,24.69
2018-07-19T10:07:33.983Z,24.73
2018-07-19T10:10:05.052Z,24.62
2018-07-19T10:12:33.950Z,24.65
2018-07-19T10:15:02.847Z,24.74
2018-07-19T10:17:31.739Z,24.98
2018-07-19T10:20:00.628Z,25.00
2018-07-19T10:22:29.544Z,25.06
2018-07-19T10:24:58.429Z,25.16
2018-07-19T10:27:27.354Z,25.21
2018-07-19T10:29:56.289Z,25.19
2018-07-19T10:32:25.287Z,25.09
2018-07-19T10:34:54.151Z,25.07
2018-07-19T10:37:23.382Z,24.87
2018-07-19T10:39:52.294Z,24.74
2018-07-19T10:42:21.204Z,24.71
2018-07-19T10:44:50.097Z,24.71
2018-07-19T10:47:19.011Z,24.80
2018-07-19T10:49:47.901Z,24.92
2018-07-19T10:52:16.801Z,25.05
2018-07-19T10:54:46.073Z,25.23
2018-07-19T10:57:14.951Z,25.41
2018-07-19T10:59:44.162Z,25.72
2018-07-19T11:02:13.048Z,25.81
2018-07-19T11:04:42.253Z,25.88
2018-07-19T11:07:11.252Z,25.76
2018-07-19T11:09:42.336Z,25.61
2018-07-19T11:12:14.373Z,25.45
2018-07-19T11:14:43.271Z,25.54
2018-07-19T11:17:12.325Z,25.42
2018-07-19T11:19:41.232Z,25.34
2018-07-19T11:22:13.674Z,25.32
2018-07-19T11:24:42.590Z,25.38
2018-07-19T11:27:11.497Z,25.44
2018-07-19T11:29:40.416Z,25.52
2018-07-19T11:32:09.338Z,25.77
2018-07-19T11:34:38.255Z,26.03
2018-07-19T11:37:07.176Z,26.12
2018-07-19T11:39:36.086Z,26.25
2018-07-19T11:42:05.017Z,26.56
2018-07-19T11:44:33.942Z,26.48
2018-07-19T11:47:03.160Z,26.39
2018-07-19T11:49:32.069Z,26.29
2018-07-19T11:52:00.983Z,26.24
2018-07-19T11:54:29.886Z,26.26
2018-07-19T11:56:58.797Z,26.43
2018-07-19T11:59:27.733Z,26.51
2018-07-19T12:01:56.676Z,26.54
2018-07-19T12:04:25.577Z,26.60
2018-07-19T12:06:54.756Z,26.78
2018-07-19T12:09:23.648Z,26.73
2018-07-19T12:11:52.562Z,26.76
2018-07-19T12:14:21.472Z,26.94
2018-07-19T12:16:50.377Z,27.16
2018-07-19T12:19:19.415Z,27.21
2018-07-19T12:21:51.618Z,27.27
2018-07-19T12:24:20.543Z,27.27
2018-07-19T12:26:49.429Z,27.29
2018-07-19T12:29:18.355Z,27.37
2018-07-19T12:31:47.328Z,27.47
2018-07-19T12:34:16.213Z,27.52
2018-07-19T12:36:45.167Z,27.36
2018-07-19T12:39:14.095Z,27.45
2018-07-19T12:41:43.037Z,27.46
2018-07-19T12:44:11.937Z,27.58
2018-07-19T12:46:40.822Z,27.46
2018-07-19T12:49:09.763Z,27.35
2018-07-19T12:51:38.653Z,27.21
2018-07-19T12:54:07.554Z,27.25
2018-07-19T12:56:36.472Z,27.32
2018-07-19T12:59:05.384Z,27.28
2018-07-19T13:01:34.304Z,27.04
2018-07-19T13:04:03.205Z,26.84
2018-07-19T13:06:35.659Z,27.08
2018-07-19T13:09:07.424Z,27.31
2018-07-19T13:11:36.476Z,27.14
2018-07-19T13:14:05.357Z,27.16
2018-07-19T13:16:34.297Z,27.06
2018-07-19T13:19:03.324Z,27.14
2018-07-19T13:21:32.271Z,26.99
2018-07-19T13:24:01.171Z,26.74
2018-07-19T13:26:30.066Z,26.66
2018-07-19T13:28:58.965Z,26.85
2018-07-19T13:31:27.877Z,26.79
2018-07-19T13:33:56.792Z,26.75
2018-07-19T13:36:25.748Z,26.71
2018-07-19T13:38:54.629Z,26.65
2018-07-19T13:41:23.552Z,26.51
2018-07-19T13:43:52.455Z,26.51
2018-07-19T13:46:25.218Z,26.43
2018-07-19T13:48:54.135Z,26.38
2018-07-19T13:51:23.025Z,26.34
2018-07-19T13:54:16.503Z,26.35
2018-07-19T13:56:45.703Z,26.42
2018-07-19T13:59:15.641Z,26.76
2018-07-19T14:01:45.482Z,26.92
2018-07-19T14:04:15.323Z,26.85
2018-07-19T14:06:44.535Z,26.73
2018-07-19T14:09:19.392Z,26.60
2018-07-19T14:11:48.356Z,26.55
2018-07-19T14:14:17.248Z,26.46
2018-07-19T14:16:46.142Z,26.38
2018-07-19T14:19:15.195Z,26.34
2018-07-19T14:21:44.071Z,26.34
2018-07-19T14:24:16.100Z,26.35
2018-07-19T14:26:45.007Z,26.34
2018-07-19T14:29:14.073Z,26.36
2018-07-19T14:31:42.975Z,26.42
2018-07-19T14:34:11.911Z,26.47
2018-07-19T14:36:40.798Z,26.58
2018-07-19T14:39:11.939Z,26.56
2018-07-19T14:41:40.821Z,26.54
2018-07-19T14:44:09.996Z,26.46
2018-07-19T14:46:39.066Z,26.44
2018-07-19T14:49:08.082Z,26.61
2018-07-19T14:51:36.983Z,26.62
2018-07-19T14:54:05.858Z,26.59
2018-07-19T14:56:34.857Z,26.57
2018-07-19T14:59:03.741Z,26.62
2018-07-19T15:01:32.640Z,26.59
2018-07-19T15:04:01.553Z,26.76
2018-07-19T15:06:30.442Z,26.68
2018-07-19T15:08:59.383Z,26.70
2018-07-19T15:11:28.239Z,26.82
2018-07-19T15:13:57.133Z,26.86
2018-07-19T15:16:26.034Z,26.99
2018-07-19T15:18:54.943Z,27.02
2018-07-19T15:21:23.900Z,27.09
2018-07-19T15:23:52.880Z,27.21
2018-07-19T15:26:21.771Z,27.23
2018-07-19T15:28:50.776Z,27.17
2018-07-19T15:31:19.609Z,27.08
2018-07-19T15:33:48.567Z,27.15
2018-07-19T15:36:17.461Z,27.16
2018-07-19T15:38:46.429Z,27.20
2018-07-19T15:41:15.367Z,27.24
2018-07-19T15:43:44.267Z,27.21
2018-07-19T15:46:13.197Z,27.28
2018-07-19T15:48:42.101Z,27.25
2018-07-19T15:51:10.985Z,27.11
2018-07-19T15:53:39.945Z,27.06
2018-07-19T15:56:08.860Z,27.00
2018-07-19T15:58:37.756Z,26.98
2018-07-19T16:01:06.671Z,26.99
2018-07-19T16:03:35.572Z,27.10
2018-07-19T16:06:04.481Z,27.19
2018-07-19T16:08:33.414Z,27.27
2018-07-19T16:11:02.309Z,27.23
2018-07-19T16:13:31.189Z,27.18
2018-07-19T16:16:00.078Z,27.18
2018-07-19T16:18:29.049Z,27.20
2018-07-19T16:20:57.961Z,27.21
2018-07-19T16:23:27.012Z,27.16
2018-07-19T16:25:55.962Z,27.11
2018-07-19T16:28:25.033Z,27.17
2018-07-19T16:30:53.915Z,27.10
2018-07-19T16:33:23.096Z,27.10
2018-07-19T16:35:51.986Z,27.06
2018-07-19T16:38:20.926Z,27.02
2018-07-19T16:40:49.998Z,27.00
2018-07-19T16:43:19.218Z,26.97
2018-07-19T16:45:48.424Z,27.01
2018-07-19T16:48:17.419Z,26.98
2018-07-19T16:50:46.552Z,26.88
2018-07-19T16:53:15.750Z,26.80
2018-07-19T16:55:44.890Z,26.80
2018-07-19T16:58:14.037Z,26.74
2018-07-19T17:00:43.182Z,26.83
2018-07-19T17:03:12.106Z,26.80
2018-07-19T17:05:41.022Z,26.76
2018-07-19T17:08:10.141Z,26.72
2018-07-19T17:10:39.023Z,26.71
2018-07-19T17:13:08.257Z,26.61
2018-07-19T17:15:40.866Z,26.55
2018-07-19T17:18:09.816Z,26.54
2018-07-19T17:20:38.733Z,26.66
2018-07-19T17:23:07.615Z,26.58
2018-07-19T17:25:36.547Z,26.49
2018-07-19T17:28:05.619Z,26.49
2018-07-19T17:30:34.848Z,26.42
2018-07-19T17:33:03.785Z,26.33
2018-07-19T17:35:35.069Z,26.27
2018-07-19T17:38:03.943Z,26.29
2018-07-19T17:40:32.900Z,26.31
2018-07-19T17:43:01.836Z,26.32
2018-07-19T17:45:30.696Z,26.37
2018-07-19T17:47:59.632Z,26.46
2018-07-19T17:50:28.721Z,26.58
2018-07-19T17:52:57.649Z,26.60
2018-07-19T17:55:26.534Z,26.65
2018-07-19T17:57:55.453Z,26.68
2018-07-19T18:00:28.008Z,26.67
2018-07-19T18:02:57.021Z,26.61
2018-07-19T18:05:29.864Z,26.58
2018-07-19T18:08:02.723Z,26.56
2018-07-19T18:10:31.669Z,26.56
2018-07-19T18:13:00.588Z,26.52
2018-07-19T18:15:30.054Z,26.49
2018-07-19T18:17:58.988Z,26.50
2018-07-19T18:20:27.916Z,26.47
2018-07-19T18:23:00.607Z,26.52
2018-07-19T18:25:29.531Z,26.52
2018-07-19T18:27:58.398Z,26.48
2018-07-19T18:30:27.322Z,26.44
2018-07-19T18:32:56.290Z,26.37
2018-07-19T18:35:25.199Z,26.39
2018-07-19T18:37:54.105Z,26.34
2018-07-19T18:40:23.003Z,26.28
2018-07-19T18:42:51.926Z,26.21
2018-07-19T18:45:20.841Z,26.21
2018-07-19T18:47:49.779Z,26.16
2018-07-19T18:50:18.649Z,26.10
2018-07-19T18:52:47.725Z,26.06
2018-07-19T18:55:16.617Z,25.99
2018-07-19T18:57:49.474Z,25.93
2018-07-19T19:00:18.364Z,25.88
2018-07-19T19:02:47.261Z,25.91
2018-07-19T19:05:16.167Z,25.93
2018-07-19T19:07:45.243Z,25.99
2018-07-19T19:10:14.156Z,26.01
2018-07-19T19:12:43.084Z,26.04
2018-07-19T19:15:15.337Z,26.02
2018-07-19T19:17:44.226Z,25.96
2018-07-19T19:20:13.168Z,25.92
2018-07-19T19:22:42.027Z,25.87
2018-07-19T19:25:10.923Z,25.83
2018-07-19T19:27:39.837Z,25.79
2018-07-19T19:30:08.764Z,25.77
2018-07-19T19:32:37.741Z,25.70
2018-07-19T19:35:06.621Z,25.68
2018-07-19T19:37:35.750Z,25.62
2018-07-19T19:40:04.892Z,25.53
2018-07-19T19:42:33.799Z,25.49
2018-07-19T19:45:02.838Z,25.47
2018-07-19T19:47:31.724Z,25.44
2018-07-19T19:50:00.668Z,25.33
2018-07-19T19:52:29.555Z,25.22
2018-07-19T19:54:58.524Z,25.17
2018-07-19T19:57:27.482Z,25.15
2018-07-19T19:59:56.514Z,25.22
2018-07-19T20:02:25.417Z,25.23
2018-07-19T20:04:54.549Z,25.21
2018-07-19T20:07:23.431Z,25.18
2018-07-19T20:09:52.349Z,25.16
2018-07-19T20:12:21.275Z,25.10
2018-07-19T20:14:50.292Z,25.06
2018-07-19T20:17:19.178Z,25.00
2018-07-19T20:19:48.051Z,24.95
2018-07-19T20:22:17.101Z,24.89
2018-07-19T20:24:46.097Z,24.84
2018-07-19T20:27:14.990Z,24.76
2018-07-19T20:29:43.897Z,24.73
2018-07-19T20:32:12.833Z,24.70
2018-07-19T20:34:41.792Z,24.64
2018-07-19T20:37:10.828Z,24.60
2018-07-19T20:39:39.841Z,24.57
2018-07-19T20:42:08.795Z,24.52
2018-07-19T20:44:37.753Z,24.47
2018-07-19T20:47:06.757Z,24.39
2018-07-19T20:49:35.788Z,24.32
2018-07-19T20:52:04.840Z,24.23
2018-07-19T20:54:34.223Z,24.19
2018-07-19T20:57:03.413Z,24.12
2018-07-19T20:59:32.314Z,24.10
2018-07-19T21:02:01.368Z,24.04
2018-07-19T21:04:30.445Z,24.05
2018-07-19T21:06:59.352Z,24.04
2018-07-19T21:09:28.321Z,23.97
2018-07-19T21:11:57.213Z,23.97
2018-07-19T21:14:26.155Z,23.95
2018-07-19T21:16:55.048Z,23.90
2018-07-19T21:19:23.987Z,23.87
2018-07-19T21:21:52.888Z,23.84
2018-07-19T21:24:21.837Z,23.83
2018-07-19T21:26:50.745Z,23.79
2018-07-19T21:29:20.008Z,23.75
2018-07-19T21:31:48.879Z,23.71
2018-07-19T21:34:17.898Z,23.65
2018-07-19T21:36:46.867Z,23.59
2018-07-19T21:39:16.249Z,23.53
2018-07-19T21:41:45.235Z,23.52
2018-07-19T21:44:14.147Z,23.54
2018-07-19T21:46:43.031Z,23.48
2018-07-19T21:49:12.038Z,23.49
2018-07-19T21:51:41.036Z,23.43
2018-07-19T21:54:09.979Z,23.37
2018-07-19T21:56:39.114Z,23.41
2018-07-19T21:59:07.964Z,23.34
2018-07-19T22:01:41.011Z,23.29
2018-07-19T22:04:10.587Z,23.34
2018-07-19T22:06:39.475Z,23.25
2018-07-19T22:09:10.125Z,23.18
2018-07-19T22:11:39.367Z,23.15
2018-07-19T22:14:08.616Z,23.15
2018-07-19T22:16:39.023Z,23.14
2018-07-19T22:19:07.985Z,23.11
2018-07-19T22:21:36.899Z,23.06
2018-07-19T22:24:05.800Z,23.04
2018-07-19T22:26:34.686Z,23.04
2018-07-19T22:29:03.758Z,23.01
2018-07-19T22:31:32.729Z,22.97
2018-07-19T22:34:01.579Z,22.94
2018-07-19T22:36:30.507Z,22.91
2018-07-19T22:38:59.549Z,22.83
2018-07-19T22:41:28.513Z,22.82
2018-07-19T22:43:57.499Z,22.70
2018-07-19T22:46:26.391Z,22.64
2018-07-19T22:48:56.084Z,22.60
2018-07-19T22:51:25.533Z,22.56
2018-07-19T22:53:54.574Z,22.55
2018-07-19T22:56:23.668Z,22.48
2018-07-19T22:58:52.608Z,22.41
2018-07-19T23:01:21.560Z,22.29
2018-07-19T23:03:50.517Z,22.23
2018-07-19T23:06:19.417Z,22.18
2018-07-19T23:08:48.433Z,22.08
2018-07-19T23:11:17.363Z,22.05
2018-07-19T23:13:46.577Z,21.99
2018-07-19T23:16:15.762Z,21.95
2018-07-19T23:18:44.690Z,21.88
2018-07-19T23:21:13.555Z,21.78
2018-07-19T23:23:42.465Z,21.75
2018-07-19T23:26:11.405Z,21.69
2018-07-19T23:28:40.318Z,21.66
2018-07-19T23:31:09.313Z,21.55
2018-07-19T23:33:38.222Z,21.53
2018-07-19T23:36:10.358Z,21.53
2018-07-19T23:38:45.355Z,21.46
2018-07-19T23:41:22.646Z,21.39
2018-07-19T23:43:55.193Z,21.38
2018-07-19T23:46:30.241Z,21.28
2018-07-19T23:49:03.325Z,21.22
2018-07-19T23:51:32.226Z,21.25
2018-07-19T23:54:01.149Z,21.22
2018-07-19T23:56:30.071Z,21.20
2018-07-19T23:58:58.969Z,21.17
